Terminal Aerodrome Forecast
Issued by NWS Tulsa, OK

Home | Current Version | Previous Version | Text Only | Print | Product List | Glossary On
Versions: 1 2 3 4 5 6 7 8 9 10 11 12 13 14 15 16
478
FTUS44 KTSA 141357 AAA
TAFTUL
TAF AMD
KTUL 141357Z 1414/1512 10008KT P6SM BKN025
     FM141700 03006KT P6SM BKN025
     FM142000 VRB04KT P6SM SCT250=

USA.gov is the U.S. government's official web portal to all federal, state and local government web resources and services.